createdAt,value
2019-06-15T00:00:59.201Z,18.15
2019-06-15T00:03:27.909Z,18.11
2019-06-15T00:05:56.835Z,18.01
2019-06-15T00:08:26.104Z,17.92
2019-06-15T00:10:55.131Z,17.84
2019-06-15T00:13:23.884Z,17.76
2019-06-15T00:15:52.581Z,17.74
2019-06-15T00:18:21.244Z,17.70
2019-06-15T00:20:50.042Z,17.72
2019-06-15T00:23:18.983Z,17.71
2019-06-15T00:25:47.714Z,17.70
2019-06-15T00:28:16.497Z,17.66
2019-06-15T00:30:45.255Z,17.63
2019-06-15T00:33:14.293Z,17.59
2019-06-15T00:35:43.280Z,17.56
2019-06-15T00:38:11.965Z,17.54
2019-06-15T00:40:40.805Z,17.55
2019-06-15T00:43:09.620Z,17.50
2019-06-15T00:45:38.459Z,17.52
2019-06-15T00:48:07.146Z,17.53
2019-06-15T00:50:35.833Z,17.54
2019-06-15T00:53:04.516Z,17.52
2019-06-15T00:55:33.780Z,17.52
2019-06-15T00:58:02.557Z,17.49
2019-06-15T01:00:31.408Z,17.47
2019-06-15T01:03:00.097Z,17.45
2019-06-15T01:05:29.042Z,17.43
2019-06-15T01:07:57.762Z,17.40
2019-06-15T01:10:26.834Z,17.38
2019-06-15T01:12:55.844Z,17.36
2019-06-15T01:15:26.463Z,17.34
2019-06-15T01:17:55.274Z,17.32
2019-06-15T01:20:24.684Z,17.31
2019-06-15T01:22:53.496Z,17.32
2019-06-15T01:25:22.239Z,17.33
2019-06-15T01:27:50.951Z,17.35
2019-06-15T01:30:19.724Z,17.35
2019-06-15T01:32:48.475Z,17.38
2019-06-15T01:35:17.651Z,17.40
2019-06-15T01:37:46.389Z,17.42
2019-06-15T01:40:16.684Z,17.42
2019-06-15T01:42:45.484Z,17.42
2019-06-15T01:45:14.398Z,17.45
2019-06-15T01:47:43.154Z,17.42
2019-06-15T01:50:12.129Z,17.42
2019-06-15T01:52:40.904Z,17.41
2019-06-15T01:56:14.801Z,17.46
2019-06-15T01:58:43.573Z,17.46
2019-06-15T02:01:15.086Z,17.44
2019-06-15T02:03:43.781Z,17.48
2019-06-15T02:06:12.618Z,17.45
2019-06-15T02:08:41.288Z,17.43
2019-06-15T02:11:10.006Z,17.41
2019-06-15T02:13:38.818Z,17.40
2019-06-15T02:16:07.634Z,17.43
2019-06-15T02:18:36.450Z,17.44
2019-06-15T02:21:07.251Z,17.41
2019-06-15T02:23:37.413Z,17.37
2019-06-15T02:26:06.248Z,17.35
2019-06-15T02:28:35.088Z,17.29
2019-06-15T02:31:04.030Z,17.26
2019-06-15T02:33:32.813Z,17.24
2019-06-15T02:36:01.597Z,17.22
2019-06-15T02:38:30.374Z,17.19
2019-06-15T02:40:59.518Z,17.18
2019-06-15T02:43:28.278Z,17.20
2019-06-15T02:45:57.069Z,17.23
2019-06-15T02:48:25.958Z,17.20
2019-06-15T02:50:54.716Z,17.17
2019-06-15T02:53:23.548Z,17.14
2019-06-15T02:55:52.709Z,17.12
2019-06-15T02:58:21.531Z,17.10
2019-06-15T03:00:56.573Z,17.06
2019-06-15T03:03:25.590Z,17.03
2019-06-15T03:05:54.628Z,16.99
2019-06-15T03:08:23.452Z,16.97
2019-06-15T03:10:55.489Z,17.05
2019-06-15T03:13:24.352Z,17.18
2019-06-15T03:15:53.121Z,17.30
2019-06-15T03:18:21.918Z,17.36
2019-06-15T03:20:50.648Z,17.39
2019-06-15T03:23:19.560Z,17.46
2019-06-15T03:25:48.342Z,17.63
2019-06-15T03:28:17.301Z,17.77
2019-06-15T03:30:46.117Z,17.88
2019-06-15T03:33:14.814Z,17.89
2019-06-15T03:35:44.005Z,17.92
2019-06-15T03:38:12.762Z,17.92
2019-06-15T03:40:42.226Z,17.91
2019-06-15T03:43:11.447Z,17.89
2019-06-15T03:45:40.256Z,17.91
2019-06-15T03:48:09.213Z,17.92
2019-06-15T03:50:38.269Z,17.99
2019-06-15T03:53:07.338Z,18.06
2019-06-15T03:55:36.267Z,18.04
2019-06-15T03:58:05.565Z,18.03
2019-06-15T04:00:46.000Z,18.03
2019-06-15T04:03:14.846Z,18.05
2019-06-15T04:05:43.831Z,18.10
2019-06-15T04:08:12.834Z,18.15
2019-06-15T04:10:41.733Z,18.16
2019-06-15T04:13:10.839Z,18.13
2019-06-15T04:15:39.812Z,18.07
2019-06-15T04:18:11.037Z,18.07
2019-06-15T04:20:40.008Z,18.12
2019-06-15T04:23:08.770Z,18.24
2019-06-15T04:25:37.607Z,18.40
2019-06-15T04:28:06.408Z,18.58
2019-06-15T04:30:35.153Z,18.72
2019-06-15T04:33:05.352Z,18.85
2019-06-15T04:35:34.099Z,18.92
2019-06-15T04:38:02.829Z,18.97
2019-06-15T04:40:31.764Z,18.90
2019-06-15T04:43:00.611Z,18.82
2019-06-15T04:45:29.368Z,18.80
2019-06-15T04:47:58.151Z,18.76
2019-06-15T04:50:27.123Z,18.78
2019-06-15T04:52:55.944Z,18.78
2019-06-15T04:55:24.763Z,18.82
2019-06-15T04:57:53.473Z,18.87
2019-06-15T05:00:22.424Z,18.92
2019-06-15T05:02:51.148Z,18.99
2019-06-15T05:05:19.911Z,19.09
2019-06-15T05:07:48.633Z,19.16
2019-06-15T05:10:17.437Z,19.17
2019-06-15T05:12:46.127Z,19.22
2019-06-15T05:15:16.583Z,19.37
2019-06-15T05:17:46.302Z,19.43
2019-06-15T05:20:15.424Z,19.50
2019-06-15T05:22:44.520Z,19.50
2019-06-15T05:25:13.561Z,19.69
2019-06-15T05:27:42.280Z,19.90
2019-06-15T05:30:11.235Z,19.96
2019-06-15T05:32:40.007Z,19.92
2019-06-15T05:35:08.965Z,19.78
2019-06-15T05:37:37.723Z,19.69
2019-06-15T05:40:06.930Z,19.52
2019-06-15T05:42:36.026Z,19.39
2019-06-15T05:45:05.665Z,19.48
2019-06-15T05:47:34.982Z,19.75
2019-06-15T05:50:03.813Z,19.97
2019-06-15T05:52:33.056Z,20.14
2019-06-15T05:55:01.754Z,19.99
2019-06-15T05:57:30.518Z,19.98
2019-06-15T05:59:59.735Z,19.93
2019-06-15T06:02:28.585Z,20.07
2019-06-15T06:04:57.281Z,20.17
2019-06-15T06:07:25.984Z,20.14
2019-06-15T06:09:56.298Z,20.15
2019-06-15T06:12:25.021Z,20.19
2019-06-15T06:14:53.790Z,20.19
2019-06-15T06:17:22.500Z,20.22
2019-06-15T06:19:51.443Z,20.14
2019-06-15T06:22:20.279Z,20.20
2019-06-15T06:24:49.494Z,20.16
2019-06-15T06:27:18.279Z,20.19
2019-06-15T06:29:46.966Z,20.10
2019-06-15T06:32:15.702Z,20.06
2019-06-15T06:34:44.444Z,19.93
2019-06-15T06:37:13.201Z,19.66
2019-06-15T06:39:41.954Z,19.58
2019-06-15T06:42:13.676Z,19.42
2019-06-15T06:44:42.434Z,19.51
2019-06-15T06:47:11.232Z,19.56
2019-06-15T06:49:40.457Z,19.56
2019-06-15T06:52:09.202Z,19.76
2019-06-15T06:54:38.021Z,19.89
2019-06-15T06:57:08.068Z,20.28
2019-06-15T06:59:36.898Z,20.44
2019-06-15T07:02:06.007Z,20.36
2019-06-15T07:04:34.795Z,20.63
2019-06-15T07:07:03.548Z,20.46
2019-06-15T07:09:32.320Z,20.47
2019-06-15T07:12:01.059Z,20.52
2019-06-15T07:14:29.832Z,20.45
2019-06-15T07:16:58.538Z,20.43
2019-06-15T07:19:27.312Z,20.38
2019-06-15T07:21:56.105Z,20.62
2019-06-15T07:24:25.068Z,20.63
2019-06-15T07:26:53.846Z,20.83
2019-06-15T07:29:23.125Z,20.66
2019-06-15T07:31:51.910Z,20.57
2019-06-15T07:34:20.584Z,20.59
2019-06-15T07:36:49.312Z,20.72
2019-06-15T07:39:18.015Z,20.66
2019-06-15T07:41:46.813Z,20.47
2019-06-15T07:44:15.810Z,20.29
2019-06-15T07:46:45.674Z,20.20
2019-06-15T07:49:14.590Z,20.13
2019-06-15T07:51:43.462Z,20.03
2019-06-15T07:54:12.402Z,19.99
2019-06-15T07:56:41.600Z,20.02
2019-06-15T07:59:10.549Z,19.89
2019-06-15T08:01:39.350Z,19.83
2019-06-15T08:04:08.077Z,19.61
2019-06-15T08:06:36.770Z,19.40
2019-06-15T08:09:06.619Z,19.12
2019-06-15T08:11:35.890Z,18.99
2019-06-15T08:14:04.790Z,18.89
2019-06-15T08:16:33.565Z,18.77
2019-06-15T08:19:04.101Z,18.89
2019-06-15T08:21:32.845Z,18.80
2019-06-15T08:24:04.756Z,18.85
2019-06-15T08:26:32.152Z,18.73
2019-06-15T08:29:01.113Z,18.67
2019-06-15T08:31:29.912Z,18.62
2019-06-15T08:33:58.707Z,18.62
2019-06-15T08:36:27.422Z,18.65
2019-06-15T08:38:56.600Z,18.67
2019-06-15T08:41:25.458Z,18.67
2019-06-15T08:43:54.503Z,18.67
2019-06-15T08:46:23.353Z,18.58
2019-06-15T08:48:52.212Z,18.59
2019-06-15T08:51:20.991Z,18.64
2019-06-15T08:53:49.671Z,18.72
2019-06-15T08:56:18.382Z,18.86
2019-06-15T08:58:55.515Z,19.00
2019-06-15T09:01:17.846Z,19.16
2019-06-15T09:03:49.444Z,19.17
2019-06-15T09:06:17.011Z,19.29
2019-06-15T09:08:45.694Z,19.34
2019-06-15T09:11:14.495Z,19.23
2019-06-15T09:13:43.611Z,19.20
2019-06-15T09:16:12.391Z,19.18
2019-06-15T09:18:41.079Z,19.10
2019-06-15T09:21:09.798Z,19.06
2019-06-15T09:23:38.540Z,19.07
2019-06-15T09:26:07.322Z,18.98
2019-06-15T09:28:36.042Z,18.93
2019-06-15T09:31:05.005Z,19.03
2019-06-15T09:33:34.156Z,19.17
2019-06-15T09:36:02.983Z,19.33
2019-06-15T09:38:31.725Z,19.59
2019-06-15T09:41:00.764Z,20.24
2019-06-15T09:43:29.719Z,20.97
2019-06-15T09:45:58.880Z,21.71
2019-06-15T09:48:27.574Z,22.04
2019-06-15T09:50:56.601Z,22.16
2019-06-15T09:53:25.552Z,22.16
2019-06-15T09:55:54.348Z,22.18
2019-06-15T09:58:23.412Z,22.43
2019-06-15T10:00:52.144Z,22.66
2019-06-15T10:03:20.879Z,22.92
2019-06-15T10:05:49.619Z,22.86
2019-06-15T10:08:18.320Z,22.33
2019-06-15T10:10:47.032Z,22.23
2019-06-15T10:13:15.832Z,22.20
2019-06-15T10:15:44.699Z,22.75
2019-06-15T10:18:13.679Z,23.41
2019-06-15T10:20:42.931Z,24.18
2019-06-15T10:23:11.787Z,24.96
2019-06-15T10:25:40.522Z,24.91
2019-06-15T10:28:09.668Z,24.87
2019-06-15T10:30:38.519Z,24.84
2019-06-15T10:33:07.218Z,24.39
2019-06-15T10:35:35.980Z,23.74
2019-06-15T10:38:05.083Z,23.16
2019-06-15T10:40:33.807Z,22.50
2019-06-15T10:43:02.770Z,21.79
2019-06-15T10:45:31.953Z,20.97
2019-06-15T10:48:00.661Z,20.74
2019-06-15T10:50:29.654Z,20.92
2019-06-15T10:52:58.745Z,21.06
2019-06-15T10:55:27.435Z,20.98
2019-06-15T10:57:56.233Z,20.64
2019-06-15T11:00:25.499Z,20.41
2019-06-15T11:02:54.300Z,20.08
2019-06-15T11:05:23.075Z,19.83
2019-06-15T11:07:52.170Z,19.71
2019-06-15T11:10:36.123Z,19.76
2019-06-15T11:13:04.952Z,20.11
2019-06-15T11:15:33.826Z,20.74
2019-06-15T11:18:02.625Z,21.47
2019-06-15T11:20:31.391Z,22.04
2019-06-15T11:23:00.341Z,22.42
2019-06-15T11:25:29.118Z,22.54
2019-06-15T11:27:57.910Z,23.12
2019-06-15T11:30:26.778Z,23.46
2019-06-15T11:32:55.504Z,23.46
2019-06-15T11:35:24.263Z,23.34
2019-06-15T11:37:53.027Z,23.16
2019-06-15T11:40:21.815Z,23.21
2019-06-15T11:42:51.741Z,23.63
2019-06-15T11:45:20.776Z,23.68
2019-06-15T11:47:49.483Z,24.17
2019-06-15T11:50:18.579Z,24.28
2019-06-15T11:52:47.613Z,24.17
2019-06-15T11:55:19.714Z,24.33
2019-06-15T11:57:46.898Z,24.47
2019-06-15T12:00:30.895Z,24.01
2019-06-15T12:02:47.880Z,23.30
2019-06-15T12:05:16.648Z,22.93
2019-06-15T12:07:45.584Z,22.97
2019-06-15T12:10:14.713Z,23.35
2019-06-15T12:12:43.642Z,23.88
2019-06-15T12:15:12.500Z,24.36
2019-06-15T12:17:41.209Z,25.17
2019-06-15T12:20:10.045Z,24.21
2019-06-15T12:22:38.877Z,24.91
2019-06-15T12:25:07.711Z,25.84
2019-06-15T12:27:36.564Z,26.44
2019-06-15T12:30:05.911Z,26.75
2019-06-15T12:32:36.218Z,26.08
2019-06-15T12:35:05.323Z,26.23
2019-06-15T12:37:34.072Z,25.86
2019-06-15T12:40:03.027Z,25.83
2019-06-15T12:42:31.801Z,27.48
2019-06-15T12:45:00.780Z,28.31
2019-06-15T12:47:29.527Z,27.37
2019-06-15T12:49:58.456Z,26.85
2019-06-15T12:52:27.171Z,27.69
2019-06-15T12:54:56.234Z,27.44
2019-06-15T12:57:25.009Z,26.39
2019-06-15T12:59:53.725Z,26.15
2019-06-15T13:02:22.495Z,25.95
2019-06-15T13:04:51.193Z,24.70
2019-06-15T13:07:20.231Z,25.09
2019-06-15T13:09:48.954Z,26.00
2019-06-15T13:12:17.961Z,26.49
2019-06-15T13:14:46.928Z,27.51
2019-06-15T13:17:19.549Z,27.54
2019-06-15T13:19:48.375Z,27.40
2019-06-15T13:22:17.121Z,27.80
2019-06-15T13:24:45.892Z,27.26
2019-06-15T13:27:14.645Z,25.81
2019-06-15T13:29:43.713Z,26.53
2019-06-15T13:32:12.574Z,27.35
2019-06-15T13:34:41.332Z,26.67
2019-06-15T13:37:10.234Z,27.66
2019-06-15T13:39:40.130Z,28.89
2019-06-15T13:42:08.853Z,29.65
2019-06-15T13:44:37.537Z,28.83
2019-06-15T13:47:06.323Z,28.84
2019-06-15T13:49:35.280Z,28.11
2019-06-15T13:52:04.189Z,28.16
2019-06-15T13:54:32.890Z,29.50
2019-06-15T13:57:01.577Z,31.17
2019-06-15T13:59:30.379Z,30.97
2019-06-15T14:01:59.166Z,29.94
2019-06-15T14:04:27.959Z,29.91
2019-06-15T14:06:56.730Z,32.45
2019-06-15T14:09:25.693Z,31.40
2019-06-15T14:11:54.605Z,29.09
2019-06-15T14:14:23.347Z,29.53
2019-06-15T14:16:52.585Z,30.70
2019-06-15T14:19:21.371Z,30.43
2019-06-15T14:21:50.173Z,27.48
2019-06-15T14:24:18.934Z,27.36
2019-06-15T14:26:47.661Z,27.59
2019-06-15T14:29:17.746Z,27.91
2019-06-15T14:31:50.218Z,29.53
2019-06-15T14:34:17.215Z,31.55
2019-06-15T14:36:46.152Z,33.00
2019-06-15T14:39:14.881Z,30.21
2019-06-15T14:41:46.822Z,30.28
2019-06-15T14:44:14.243Z,31.89
2019-06-15T14:46:43.060Z,34.23
2019-06-15T14:49:11.779Z,35.91
2019-06-15T14:51:40.467Z,36.09
2019-06-15T14:54:09.264Z,35.83
2019-06-15T14:56:38.029Z,34.89
2019-06-15T14:59:06.722Z,33.71
2019-06-15T15:01:35.589Z,31.73
2019-06-15T15:04:06.308Z,29.56
2019-06-15T15:06:36.799Z,28.20
2019-06-15T15:09:07.018Z,30.02
2019-06-15T15:11:36.702Z,29.80
2019-06-15T15:14:06.717Z,30.34
2019-06-15T15:16:35.710Z,30.75
2019-06-15T15:19:06.109Z,31.20
2019-06-15T15:21:37.014Z,32.22
2019-06-15T15:24:06.232Z,33.62
2019-06-15T15:26:37.063Z,33.47
2019-06-15T15:29:07.007Z,34.16
2019-06-15T15:31:36.275Z,34.16
2019-06-15T15:34:07.776Z,30.94
2019-06-15T15:36:36.870Z,30.61
2019-06-15T15:39:10.091Z,31.33
2019-06-15T15:41:37.197Z,34.26
2019-06-15T15:44:05.931Z,36.42
2019-06-15T15:46:34.796Z,36.43
2019-06-15T15:49:03.658Z,34.17
2019-06-15T15:51:32.393Z,30.56
2019-06-15T15:54:01.484Z,27.04
2019-06-15T15:56:30.578Z,27.31
2019-06-15T15:58:59.350Z,28.66
2019-06-15T16:01:28.110Z,29.26
2019-06-15T16:03:56.810Z,29.53
2019-06-15T16:06:26.222Z,30.09
2019-06-15T16:08:56.962Z,30.03
2019-06-15T16:11:26.690Z,29.18
2019-06-15T16:13:56.469Z,27.57
2019-06-15T16:16:26.686Z,26.82
2019-06-15T16:18:56.194Z,25.64
2019-06-15T16:21:26.139Z,25.13
2019-06-15T16:23:58.146Z,26.21
2019-06-15T16:26:27.262Z,26.92
2019-06-15T16:28:56.375Z,27.49
2019-06-15T16:31:28.530Z,27.42
2019-06-15T16:33:55.886Z,26.71
2019-06-15T16:36:24.609Z,25.99
2019-06-15T16:38:53.444Z,25.17
2019-06-15T16:41:22.266Z,24.74
2019-06-15T16:43:51.024Z,25.57
2019-06-15T16:46:19.728Z,27.28
2019-06-15T16:48:48.737Z,28.53
2019-06-15T16:51:17.437Z,29.28
2019-06-15T16:53:47.367Z,30.23
2019-06-15T16:56:16.733Z,30.06
2019-06-15T16:58:46.880Z,29.83
2019-06-15T17:01:16.780Z,28.36
2019-06-15T17:03:46.990Z,28.86
2019-06-15T17:06:16.180Z,29.09
2019-06-15T17:08:46.534Z,28.30
2019-06-15T17:11:17.330Z,29.02
2019-06-15T17:13:47.501Z,28.76
2019-06-15T17:16:16.913Z,28.12
2019-06-15T17:18:47.069Z,27.53
2019-06-15T17:21:17.085Z,27.62
2019-06-15T17:23:46.730Z,28.01
2019-06-15T17:26:16.866Z,27.63
2019-06-15T17:28:46.099Z,27.51
2019-06-15T17:31:16.640Z,27.60
2019-06-15T17:33:46.898Z,27.69
2019-06-15T17:36:15.826Z,27.27
2019-06-15T17:38:47.804Z,26.73
2019-06-15T17:41:17.342Z,26.68
2019-06-15T17:43:47.371Z,25.86
2019-06-15T17:46:16.607Z,25.20
2019-06-15T17:48:46.749Z,24.86
2019-06-15T17:51:16.198Z,24.89
2019-06-15T17:53:47.392Z,24.39
2019-06-15T17:56:16.316Z,24.34
2019-06-15T17:58:46.391Z,24.15
2019-06-15T18:01:17.228Z,23.78
2019-06-15T18:03:54.031Z,23.67
2019-06-15T18:06:17.478Z,23.83
2019-06-15T18:08:46.643Z,23.74
2019-06-15T18:11:16.773Z,23.53
2019-06-15T18:13:47.217Z,23.20
2019-06-15T18:16:16.155Z,22.94
2019-06-15T18:18:44.918Z,22.75
2019-06-15T18:21:15.927Z,22.44
2019-06-15T18:23:46.423Z,22.09
2019-06-15T18:26:16.118Z,21.95
2019-06-15T18:28:46.910Z,21.77
2019-06-15T18:31:16.305Z,21.71
2019-06-15T18:33:47.327Z,21.77
2019-06-15T18:36:17.142Z,21.80
2019-06-15T18:38:46.648Z,21.89
2019-06-15T18:41:16.957Z,21.96
2019-06-15T18:43:45.817Z,22.12
2019-06-15T18:46:14.841Z,22.20
2019-06-15T18:48:43.612Z,22.43
2019-06-15T18:51:12.400Z,22.64
2019-06-15T18:53:41.623Z,22.66
2019-06-15T18:56:10.341Z,22.57
2019-06-15T18:58:39.960Z,22.50
2019-06-15T19:01:08.649Z,22.44
2019-06-15T19:03:37.754Z,22.32
2019-06-15T19:06:06.813Z,22.16
2019-06-15T19:08:35.450Z,21.99
2019-06-15T19:11:06.800Z,21.78
2019-06-15T19:13:36.042Z,21.61
2019-06-15T19:16:06.990Z,21.38
2019-06-15T19:18:37.012Z,21.19
2019-06-15T19:21:06.988Z,20.95
2019-06-15T19:23:36.167Z,20.75
2019-06-15T19:26:06.314Z,20.59
2019-06-15T19:28:37.033Z,20.41
2019-06-15T19:31:06.602Z,20.24
2019-06-15T19:33:37.730Z,20.07
2019-06-15T19:36:06.360Z,19.83
2019-06-15T19:38:36.240Z,19.57
2019-06-15T19:41:06.932Z,19.14
2019-06-15T19:43:36.323Z,18.70
2019-06-15T19:46:06.799Z,18.30
2019-06-15T19:48:36.861Z,17.95
2019-06-15T19:51:05.787Z,17.65
2019-06-15T19:53:36.389Z,17.36
2019-06-15T19:56:06.887Z,17.13
2019-06-15T19:58:35.482Z,17.05
2019-06-15T20:01:06.788Z,17.11
2019-06-15T20:03:36.133Z,17.22
2019-06-15T20:06:06.499Z,17.24
2019-06-15T20:08:36.133Z,17.11
2019-06-15T20:11:07.180Z,16.79
2019-06-15T20:13:37.041Z,16.41
2019-06-15T20:16:07.854Z,16.08
2019-06-15T20:18:37.479Z,15.82
2019-06-15T20:21:07.349Z,15.58
2019-06-15T20:23:37.238Z,15.39
2019-06-15T20:26:06.799Z,15.23
2019-06-15T20:28:35.906Z,15.11
2019-06-15T20:31:06.437Z,15.00
2019-06-15T20:33:36.919Z,14.93
2019-06-15T20:36:06.679Z,14.86
2019-06-15T20:38:36.299Z,14.77
2019-06-15T20:41:07.290Z,14.72
2019-06-15T20:43:36.661Z,14.65
2019-06-15T20:46:07.039Z,14.59
2019-06-15T20:48:36.453Z,14.58
2019-06-15T20:51:09.811Z,14.57
2019-06-15T20:53:36.753Z,14.58
2019-06-15T20:56:06.646Z,14.61
2019-06-15T20:58:37.360Z,14.58
2019-06-15T21:01:07.097Z,14.46
2019-06-15T21:03:36.690Z,14.32
2019-06-15T21:06:06.843Z,14.20
2019-06-15T21:08:36.502Z,14.10
2019-06-15T21:11:07.115Z,14.04
2019-06-15T21:13:37.451Z,14.02
2019-06-15T21:16:06.801Z,14.00
2019-06-15T21:18:37.125Z,13.97
2019-06-15T21:21:06.855Z,13.95
2019-06-15T21:23:37.213Z,13.89
2019-06-15T21:26:06.875Z,13.91
2019-06-15T21:28:36.854Z,13.93
2019-06-15T21:31:06.031Z,13.90
2019-06-15T21:33:36.136Z,13.83
2019-06-15T21:36:06.260Z,13.79
2019-06-15T21:38:36.174Z,13.77
2019-06-15T21:41:07.555Z,13.75
2019-06-15T21:43:36.322Z,13.74
2019-06-15T21:46:06.341Z,13.81
2019-06-15T21:48:36.465Z,13.81
2019-06-15T21:51:07.818Z,13.79
2019-06-15T21:53:36.301Z,13.78
2019-06-15T21:56:07.149Z,13.74
2019-06-15T21:58:36.715Z,13.71
2019-06-15T22:01:31.972Z,13.77
2019-06-15T22:04:00.829Z,13.87
2019-06-15T22:06:29.644Z,13.88
2019-06-15T22:08:58.826Z,13.85
2019-06-15T22:11:27.702Z,13.77
2019-06-15T22:13:57.109Z,13.69
2019-06-15T22:16:27.565Z,13.62
2019-06-15T22:18:56.438Z,13.56
2019-06-15T22:21:27.867Z,13.51
2019-06-15T22:23:55.957Z,13.46
2019-06-15T22:26:26.691Z,13.38
2019-06-15T22:28:56.930Z,13.30
2019-06-15T22:31:26.500Z,13.22
2019-06-15T22:33:56.694Z,13.16
2019-06-15T22:36:28.488Z,13.14
2019-06-15T22:38:56.964Z,13.10
2019-06-15T22:41:25.989Z,13.03
2019-06-15T22:43:56.782Z,12.96
2019-06-15T22:46:26.184Z,12.88
2019-06-15T22:48:56.205Z,12.83
2019-06-15T22:51:27.500Z,12.86
2019-06-15T22:53:56.559Z,12.86
2019-06-15T22:56:26.371Z,12.85
2019-06-15T22:58:57.024Z,12.81
2019-06-15T23:01:26.220Z,12.76
2019-06-15T23:03:57.130Z,12.79
2019-06-15T23:06:36.727Z,12.84
2019-06-15T23:08:56.554Z,12.85
2019-06-15T23:11:26.623Z,12.86
2019-06-15T23:13:57.415Z,12.89
2019-06-15T23:16:27.334Z,12.85
2019-06-15T23:18:57.012Z,12.83
2019-06-15T23:21:26.916Z,12.82
2019-06-15T23:23:56.429Z,12.84
2019-06-15T23:26:25.104Z,12.90
2019-06-15T23:28:56.220Z,12.90
2019-06-15T23:31:24.563Z,12.86
2019-06-15T23:33:55.898Z,12.80
2019-06-15T23:36:28.700Z,12.75
2019-06-15T23:38:57.454Z,12.76
2019-06-15T23:41:27.260Z,12.88
2019-06-15T23:43:56.359Z,12.93
2019-06-15T23:46:27.206Z,12.95
2019-06-15T23:48:56.623Z,13.12
2019-06-15T23:51:26.472Z,13.48
2019-06-15T23:53:57.221Z,13.90
2019-06-15T23:56:26.248Z,14.11
2019-06-15T23:58:56.102Z,14.17
